Time;durP1;ratioP1;P1;durP2;ratioP2;P2;SDS_P1;SDS_P2;PMS_P1;PMS_P2;Temp;Humidity;BMP_temperature;BMP_pressure;BME280_temperature;BME280_humidity;BME280_pressure;Samples;Min_cycle;Max_cycle;Signal;HPM_P1;HPM_P2
2023/07/09 00:00:05;;;;;;;8.30;6.10;;;;;;;16.64;61.56;100860.97;102426;280;120240;-53
2023/07/09 00:02:44;;;;;;;7.30;5.60;;;;;;;16.58;61.82;100864.06;102394;280;105702;-54
2023/07/09 00:05:20;;;;;;;8.40;5.80;;;;;;;16.55;61.98;100866.03;102436;280;112519;-53
2023/07/09 00:08:00;;;;;;;6.30;5.40;;;;;;;16.55;62.08;100870.45;102407;280;92395;-54
2023/07/09 00:10:40;;;;;;;10.00;5.30;;;;;;;16.52;62.30;100878.09;102393;279;97365;-54
2023/07/09 00:13:15;;;;;;;7.20;5.40;;;;;;;16.46;62.60;100878.77;102361;279;118606;-55
2023/07/09 00:15:56;;;;;;;7.10;5.30;;;;;;;16.39;62.89;100879.11;102345;280;103813;-56
2023/07/09 00:18:36;;;;;;;5.90;5.30;;;;;;;16.35;63.07;100881.95;102373;280;114101;-57
2023/07/09 00:21:13;;;;;;;8.00;5.20;;;;;;;16.32;63.20;100880.63;102371;280;96561;-54
2023/07/09 00:23:53;;;;;;;7.50;5.60;;;;;;;16.28;63.28;100877.81;102346;280;97846;-53
2023/07/09 00:26:33;;;;;;;6.60;5.70;;;;;;;16.27;63.40;100878.38;102372;280;120721;-54
2023/07/09 00:29:11;;;;;;;6.10;5.10;;;;;;;16.27;63.36;100880.51;102399;280;105512;-55
2023/07/09 00:31:50;;;;;;;6.40;5.50;;;;;;;16.27;63.54;100880.01;102400;281;114866;-55
2023/07/09 00:34:26;;;;;;;6.70;5.40;;;;;;;16.26;63.71;100880.39;102239;281;93931;-55
2023/07/09 00:37:00;;;;;;;5.60;5.00;;;;;;;16.26;63.89;100879.98;102457;280;96945;-56
2023/07/09 00:39:36;;;;;;;7.80;5.20;;;;;;;16.27;63.76;100881.90;102415;280;119211;-56
2023/07/09 00:42:17;;;;;;;5.90;5.20;;;;;;;16.22;63.95;100885.14;102405;268;105825;-56
2023/07/09 00:44:55;;;;;;;7.20;5.20;;;;;;;16.18;64.02;100889.63;102437;280;113230;-55
2023/07/09 00:47:47;;;;;;;6.60;5.80;;;;;;;16.12;64.35;100889.52;102402;280;96753;-54
2023/07/09 00:50:41;;;;;;;7.80;5.10;;;;;;;16.08;64.30;100886.14;102405;280;96830;-54
2023/07/09 00:53:22;;;;;;;7.40;5.60;;;;;;;16.07;64.70;100885.89;102390;280;121685;-53
2023/07/09 00:56:16;;;;;;;6.00;5.40;;;;;;;16.04;64.85;100881.08;102391;280;104405;-53
2023/07/09 00:58:56;;;;;;;7.00;5.20;;;;;;;16.06;64.76;100881.73;102347;281;115212;-54
2023/07/09 01:01:31;;;;;;;7.20;5.40;;;;;;;16.09;64.88;100882.20;102370;280;93010;-56
2023/07/09 01:04:16;;;;;;;5.00;4.50;;;;;;;16.08;64.72;100879.80;102389;280;97765;-55
2023/07/09 01:07:00;;;;;;;5.90;5.10;;;;;;;16.05;64.92;100879.86;102400;281;121341;-55
2023/07/09 01:09:41;;;;;;;5.60;4.80;;;;;;;16.00;65.05;100879.20;102402;281;105827;-55
2023/07/09 01:12:22;;;;;;;6.00;5.20;;;;;;;15.93;65.11;100883.27;102373;280;112073;-55
2023/07/09 01:15:00;;;;;;;7.50;5.20;;;;;;;15.86;65.33;100883.92;102425;280;93241;-55
2023/07/09 01:17:36;;;;;;;6.50;5.80;;;;;;;15.80;65.29;100882.33;102421;281;97962;-55
2023/07/09 01:20:20;;;;;;;6.40;5.60;;;;;;;15.76;65.57;100881.16;102425;280;121129;-54
2023/07/09 01:23:00;;;;;;;7.70;6.40;;;;;;;15.69;65.64;100884.65;102444;280;104568;-54
2023/07/09 01:25:54;;;;;;;7.10;5.30;;;;;;;15.58;65.95;100885.62;102436;280;114003;-55
2023/07/09 01:28:31;;;;;;;6.80;5.10;;;;;;;15.53;65.98;100881.64;102433;280;96391;-55
2023/07/09 01:31:11;;;;;;;6.30;5.40;;;;;;;15.46;66.41;100882.23;102396;268;97188;-53
2023/07/09 01:33:51;;;;;;;6.00;5.20;;;;;;;15.39;66.70;100885.50;102420;280;120618;-53
2023/07/09 01:36:32;;;;;;;6.40;5.60;;;;;;;15.33;66.74;100884.70;102390;281;105752;-54
2023/07/09 01:39:08;;;;;;;6.10;5.20;;;;;;;15.26;66.87;100886.16;102376;281;115102;-53
2023/07/09 01:41:49;;;;;;;8.20;5.80;;;;;;;15.19;67.20;100887.83;102209;280;92818;-53
2023/07/09 01:44:29;;;;;;;7.10;5.40;;;;;;;15.10;67.38;100885.93;102398;280;95499;-54
2023/07/09 01:47:06;;;;;;;6.90;5.80;;;;;;;15.08;67.50;100883.38;102354;280;120341;-54
2023/07/09 01:49:46;;;;;;;6.40;5.80;;;;;;;15.08;67.61;100884.05;102410;280;104452;-56
2023/07/09 01:52:28;;;;;;;6.20;5.40;;;;;;;15.06;67.74;100886.34;102356;280;114180;-56
2023/07/09 01:55:07;;;;;;;6.40;5.80;;;;;;;15.02;67.98;100886.83;102438;280;95142;-55
2023/07/09 01:57:47;;;;;;;10.40;5.90;;;;;;;15.01;67.99;100888.39;102448;280;96991;-56
2023/07/09 02:00:28;;;;;;;7.50;5.80;;;;;;;15.01;68.00;100888.21;102400;281;121075;-55
2023/07/09 02:03:08;;;;;;;6.70;5.40;;;;;;;14.95;68.22;100888.58;102394;280;105237;-55
2023/07/09 02:05:53;;;;;;;6.80;5.20;;;;;;;14.91;68.20;100895.77;102465;280;114698;-54
2023/07/09 02:08:34;;;;;;;6.60;5.90;;;;;;;14.90;68.48;100899.78;102391;280;96351;-54
2023/07/09 02:11:09;;;;;;;7.70;5.50;;;;;;;14.87;68.78;100895.59;102375;280;98093;-54
2023/07/09 02:13:50;;;;;;;6.60;5.20;;;;;;;14.84;68.81;100893.41;102356;280;120265;-54
2023/07/09 02:16:29;;;;;;;9.40;6.20;;;;;;;14.81;69.04;100896.45;102363;281;105852;-54
2023/07/09 02:19:09;;;;;;;8.20;5.60;;;;;;;14.79;69.08;100890.27;102363;280;113857;-55
2023/07/09 02:21:52;;;;;;;7.00;5.40;;;;;;;14.79;69.20;100888.16;102366;280;93874;-55
2023/07/09 02:24:38;;;;;;;6.40;5.80;;;;;;;14.84;69.18;100894.00;102400;281;98194;-56
2023/07/09 02:27:22;;;;;;;6.70;5.50;;;;;;;14.86;69.15;100897.23;102329;281;120096;-57
2023/07/09 02:30:02;;;;;;;8.60;5.90;;;;;;;14.86;69.31;100898.80;102374;281;105223;-57
2023/07/09 02:32:39;;;;;;;6.10;4.80;;;;;;;14.88;69.18;100900.95;102379;281;112378;-57
2023/07/09 02:35:17;;;;;;;7.50;4.90;;;;;;;14.89;69.24;100900.45;102355;280;97227;-53
2023/07/09 02:37:52;;;;;;;7.70;5.70;;;;;;;14.90;69.37;100901.26;102385;280;98031;-54
2023/07/09 02:40:27;;;;;;;;;;;;;;;14.93;69.34;100902.27;102394;281;119613;-54
2023/07/09 02:43:04;;;;;;;8.40;5.20;;;;;;;14.99;69.21;100898.48;102378;280;103683;-56
2023/07/09 02:45:45;;;;;;;8.60;4.80;;;;;;;15.05;69.40;100902.42;102410;281;114350;-56
2023/07/09 02:48:29;;;;;;;4.90;4.40;;;;;;;15.11;69.19;100898.66;102424;280;94774;-56
2023/07/09 02:51:12;;;;;;;7.20;5.60;;;;;;;15.14;69.44;100896.27;102424;280;96641;-54
2023/07/09 02:53:49;;;;;;;6.10;4.70;;;;;;;15.21;69.27;100902.57;102405;280;119700;-54
2023/07/09 02:56:23;;;;;;;6.30;4.90;;;;;;;15.28;69.26;100902.70;102446;280;104385;-53
2023/07/09 02:59:01;;;;;;;6.00;4.50;;;;;;;15.35;69.27;100903.55;102402;280;112882;-53
2023/07/09 03:01:35;;;;;;;5.40;4.70;;;;;;;15.43;69.12;100903.69;102384;280;92297;-53
2023/07/09 03:04:12;;;;;;;;;;;;;;;15.50;69.20;100907.48;102448;280;95695;-54
2023/07/09 03:06:47;;;;;;;5.40;4.70;;;;;;;15.55;69.14;100909.67;102352;280;119159;-55
2023/07/09 03:09:26;;;;;;;6.10;4.70;;;;;;;15.63;69.02;100910.21;102401;280;105009;-56
2023/07/09 03:12:05;;;;;;;8.00;5.00;;;;;;;15.71;68.93;100914.78;102323;281;114612;-56
2023/07/09 03:14:43;;;;;;;6.10;4.60;;;;;;;15.77;68.77;100912.64;102374;280;96701;-56
2023/07/09 03:17:21;;;;;;;5.50;4.60;;;;;;;15.80;68.82;100912.02;102355;280;98002;-57
2023/07/09 03:20:00;;;;;;;5.50;4.30;;;;;;;15.86;68.61;100917.67;102269;281;120021;-55
2023/07/09 03:22:44;;;;;;;5.20;4.70;;;;;;;15.95;68.46;100918.52;102380;280;105507;-56
2023/07/09 03:25:21;;;;;;;7.00;4.90;;;;;;;16.02;68.29;100920.41;102395;281;114533;-53
2023/07/09 03:28:06;;;;;;;9.60;5.40;;;;;;;16.09;68.26;100922.86;102391;280;94838;-53
2023/07/09 03:30:43;;;;;;;;;;;;;;;16.15;68.26;100923.54;102442;268;97457;-54
2023/07/09 03:33:26;;;;;;;5.90;5.10;;;;;;;16.43;68.35;100927.62;102376;280;121494;-54
2023/07/09 03:36:05;;;;;;;7.90;4.90;;;;;;;17.07;67.87;100925.25;102428;280;105779;-57
2023/07/09 03:38:40;;;;;;;6.30;4.70;;;;;;;18.50;66.79;100924.95;102444;280;113323;-57
2023/07/09 03:41:21;;;;;;;4.70;4.20;;;;;;;20.05;64.69;100920.95;102408;280;94056;-56
2023/07/09 03:43:59;;;;;;;9.30;5.10;;;;;;;21.50;62.32;100923.13;102447;280;96399;-55
2023/07/09 03:46:34;;;;;;;4.80;3.90;;;;;;;22.61;60.32;100917.45;102387;280;120873;-55
2023/07/09 03:49:20;;;;;;;6.90;4.20;;;;;;;23.62;58.06;100918.60;102404;280;104888;-54
2023/07/09 03:52:02;;;;;;;5.60;3.60;;;;;;;24.40;55.68;100921.92;102399;280;113448;-55
2023/07/09 03:54:46;;;;;;;4.50;3.50;;;;;;;24.98;53.88;100923.60;102426;280;93544;-55
2023/07/09 03:57:23;;;;;;;4.40;3.30;;;;;;;25.86;52.28;100916.49;102386;280;97821;-55
2023/07/09 04:00:10;;;;;;;4.40;3.10;;;;;;;26.62;50.41;100917.21;102390;280;119985;-55
2023/07/09 04:02:47;;;;;;;4.50;3.00;;;;;;;27.24;48.68;100917.98;102387;280;104579;-54
2023/07/09 04:05:21;;;;;;;4.00;3.30;;;;;;;27.87;46.93;100913.49;102360;280;113724;-57
2023/07/09 04:08:04;;;;;;;5.20;3.20;;;;;;;28.23;45.71;100914.06;102401;280;93065;-56
2023/07/09 04:10:44;;;;;;;3.90;2.90;;;;;;;28.62;43.97;100921.31;102296;281;98663;-55
2023/07/09 04:13:21;;;;;;;3.50;3.20;;;;;;;29.05;43.11;100917.27;102251;281;120875;-55
2023/07/09 04:15:59;;;;;;;3.70;3.00;;;;;;;29.51;41.87;100913.15;102424;280;106617;-57
2023/07/09 04:18:47;;;;;;;3.90;2.50;;;;;;;30.02;40.88;100915.65;102390;280;114799;-56
2023/07/09 04:21:29;;;;;;;4.20;3.00;;;;;;;30.54;39.55;100918.10;102370;280;93281;-56
2023/07/09 04:24:05;;;;;;;4.70;2.80;;;;;;;30.74;38.36;100919.91;102435;281;97259;-54
2023/07/09 04:26:39;;;;;;;7.40;2.80;;;;;;;30.63;37.73;100923.92;102363;280;120086;-55
2023/07/09 04:29:16;;;;;;;3.90;2.40;;;;;;;29.28;37.49;100930.84;102396;281;104993;-53
2023/07/09 04:31:52;;;;;;;4.20;2.60;;;;;;;27.61;38.50;100928.66;102386;280;114749;-54
2023/07/09 04:34:28;;;;;;;4.00;2.40;;;;;;;26.27;39.61;100933.29;102402;280;94631;-55
2023/07/09 04:37:09;;;;;;;4.00;2.90;;;;;;;25.46;40.57;100940.36;102409;280;95930;-54
2023/07/09 04:39:49;;;;;;;3.20;2.30;;;;;;;24.59;41.62;100940.98;102390;280;120562;-55
2023/07/09 04:42:28;;;;;;;4.00;2.50;;;;;;;24.30;42.21;100938.92;102354;280;104717;-54
2023/07/09 04:45:04;;;;;;;3.90;2.60;;;;;;;23.85;43.00;100941.44;102335;280;113136;-54
2023/07/09 04:47:44;;;;;;;5.00;2.50;;;;;;;23.42;43.87;100942.69;102247;280;93713;-60
2023/07/09 04:50:32;;;;;;;3.30;2.30;;;;;;;23.48;44.43;100940.94;102383;280;97796;-54
2023/07/09 04:53:11;;;;;;;5.40;2.50;;;;;;;24.21;44.27;100943.98;102335;280;121308;-54
2023/07/09 04:55:50;;;;;;;4.80;2.50;;;;;;;25.45;43.33;100946.17;102433;280;104356;-57
2023/07/09 04:58:32;;;;;;;3.00;2.20;;;;;;;26.14;42.44;100940.80;102379;280;113949;-57
2023/07/09 05:01:12;;;;;;;3.50;2.40;;;;;;;26.36;41.84;100941.66;102402;280;92673;-55
2023/07/09 05:03:48;;;;;;;3.90;2.20;;;;;;;27.78;41.13;100943.58;102391;280;97294;-55
2023/07/09 05:06:30;;;;;;;4.90;2.10;;;;;;;29.56;39.68;100937.34;102437;280;119828;-54
2023/07/09 05:09:08;;;;;;;5.10;2.10;;;;;;;30.89;37.88;100932.42;102430;280;105644;-57
2023/07/09 05:11:47;;;;;;;3.90;2.20;;;;;;;31.88;36.39;100933.52;102380;281;114793;-57
2023/07/09 05:14:23;;;;;;;3.50;2.20;;;;;;;32.75;35.14;100934.48;102420;280;93742;-58
2023/07/09 05:17:01;;;;;;;3.70;1.80;;;;;;;33.17;34.07;100934.31;101923;281;676756;-56
2023/07/09 05:19:37;;;;;;;2.80;2.30;;;;;;;33.67;33.17;100936.23;102291;280;121435;-54
2023/07/09 05:22:11;;;;;;;3.90;1.80;;;;;;;34.06;32.54;100941.01;102342;280;104424;-54
2023/07/09 05:24:50;;;;;;;2.30;2.10;;;;;;;34.64;31.69;100943.30;102447;280;113164;-53
2023/07/09 05:27:28;;;;;;;2.70;1.80;;;;;;;34.93;30.92;100942.42;102329;280;93256;-54
2023/07/09 05:30:06;;;;;;;3.70;1.80;;;;;;;34.93;30.04;100949.73;102384;280;97621;-55
2023/07/09 05:32:47;;;;;;;5.80;2.30;;;;;;;34.78;29.58;100949.90;102410;280;121082;-54
2023/07/09 05:35:27;;;;;;;3.70;2.20;;;;;;;34.99;29.02;100950.88;102370;280;105253;-57
2023/07/09 05:38:04;;;;;;;5.50;1.90;;;;;;;35.33;28.76;100943.77;102391;281;113181;-56
2023/07/09 05:40:39;;;;;;;4.30;1.70;;;;;;;35.47;27.51;100946.31;102381;280;93855;-54
2023/07/09 05:43:15;;;;;;;3.60;1.90;;;;;;;35.33;27.17;100947.11;102365;280;96497;-54
2023/07/09 05:45:54;;;;;;;3.60;1.80;;;;;;;35.44;27.12;100947.96;102355;281;118847;-54
2023/07/09 05:48:34;;;;;;;2.60;1.70;;;;;;;35.59;26.82;100947.83;102412;280;104453;-53
2023/07/09 05:51:13;;;;;;;3.20;1.80;;;;;;;35.83;26.73;100950.14;102460;280;112446;-53
2023/07/09 05:53:53;;;;;;;2.50;1.30;;;;;;;36.51;26.26;100945.54;102442;280;92457;-54
2023/07/09 05:56:28;;;;;;;1.80;1.50;;;;;;;36.85;25.65;100945.17;102375;280;96689;-54
2023/07/09 05:59:04;;;;;;;2.80;1.60;;;;;;;36.86;24.83;100950.69;102394;280;119539;-54
2023/07/09 06:01:40;;;;;;;3.00;1.80;;;;;;;36.06;25.02;100952.43;102407;280;104471;-54
2023/07/09 06:04:18;;;;;;;2.40;1.90;;;;;;;35.08;25.59;100957.36;102424;281;114193;-55
2023/07/09 06:06:57;;;;;;;2.80;1.80;;;;;;;35.18;25.99;100956.34;102362;280;94832;-54
2023/07/09 06:09:34;;;;;;;4.10;1.90;;;;;;;35.34;25.90;100956.73;102408;280;96029;-57
2023/07/09 06:12:12;;;;;;;2.90;2.00;;;;;;;35.75;25.74;100958.73;102216;280;122027;-55
2023/07/09 06:14:52;;;;;;;3.20;1.90;;;;;;;36.63;25.44;100959.46;102354;280;104614;-55
2023/07/09 06:17:32;;;;;;;2.30;1.80;;;;;;;37.31;24.91;100949.42;102364;280;114484;-56
2023/07/09 06:20:14;;;;;;;4.00;1.80;;;;;;;37.79;24.26;100953.56;102363;280;94586;-57
2023/07/09 06:22:52;;;;;;;3.40;2.00;;;;;;;38.11;23.72;100952.48;102345;281;96970;-57
2023/07/09 06:25:32;;;;;;;3.00;1.80;;;;;;;38.11;23.79;100955.95;102399;280;122158;-56
2023/07/09 06:28:07;;;;;;;3.20;1.80;;;;;;;38.33;23.73;100952.93;102361;280;105014;-56
2023/07/09 06:30:43;;;;;;;2.90;1.60;;;;;;;38.68;23.33;100946.38;102438;280;115697;-56
2023/07/09 06:33:20;;;;;;;2.70;1.60;;;;;;;39.12;22.34;100944.08;102373;281;93199;-56
2023/07/09 06:36:04;;;;;;;4.30;2.40;;;;;;;38.79;22.66;100951.02;102457;280;97403;-57
2023/07/09 06:38:41;;;;;;;3.50;1.80;;;;;;;38.43;22.43;100957.39;102451;280;120279;-56
2023/07/09 06:41:23;;;;;;;3.20;1.70;;;;;;;38.19;22.92;100959.14;102424;280;106060;-55
2023/07/09 06:44:03;;;;;;;3.60;1.90;;;;;;;38.68;22.51;100957.77;102407;281;113370;-57
2023/07/09 06:47:04;;;;;;;2.30;1.90;;;;;;;38.60;22.05;100960.83;102369;280;93050;-57
2023/07/09 06:49:44;;;;;;;2.50;1.50;;;;;;;37.86;22.39;100972.71;102096;283;98156;-55
2023/07/09 06:52:22;;;;;;;3.00;2.00;;;;;;;38.22;22.54;100970.87;102102;283;120055;-57
2023/07/09 06:55:04;;;;;;;3.30;1.80;;;;;;;38.43;22.27;100972.84;102083;283;104982;-54
2023/07/09 06:57:39;;;;;;;3.00;1.90;;;;;;;38.90;21.98;100973.67;102113;283;113646;-52
2023/07/09 07:00:16;;;;;;;2.90;1.70;;;;;;;39.20;21.57;100975.20;102133;283;93348;-56
2023/07/09 07:02:53;;;;;;;2.40;1.90;;;;;;;39.73;21.67;100967.21;102124;276;95738;-57
2023/07/09 07:05:31;;;;;;;3.80;1.90;;;;;;;39.89;21.76;100969.50;102125;283;121542;-54
2023/07/09 07:08:10;;;;;;;3.20;1.80;;;;;;;40.12;21.49;100968.30;102096;283;105777;-54
2023/07/09 07:10:48;;;;;;;2.10;1.40;;;;;;;40.26;21.17;100965.73;102101;283;114554;-57
2023/07/09 07:13:22;;;;;;;2.60;2.30;;;;;;;40.69;20.90;100967.91;102094;283;94473;-56
2023/07/09 07:16:03;;;;;;;4.00;1.80;;;;;;;40.81;20.59;100971.20;102125;283;97850;-54
2023/07/09 07:18:42;;;;;;;2.30;1.80;;;;;;;40.19;20.63;100974.59;102078;283;119798;-54
2023/07/09 07:21:20;;;;;;;2.50;1.70;;;;;;;40.31;20.51;100970.85;102196;281;104088;-57
2023/07/09 07:24:10;;;;;;;2.20;1.70;;;;;;;40.74;20.47;100972.55;102391;280;113743;-54
2023/07/09 07:26:46;;;;;;;2.00;1.60;;;;;;;40.41;20.50;100969.58;102380;280;94460;-53
2023/07/09 07:29:24;;;;;;;2.10;1.70;;;;;;;40.40;20.25;100967.80;102369;280;95794;-57
2023/07/09 07:32:04;;;;;;;2.40;1.60;;;;;;;41.02;20.40;100963.14;102393;280;121192;-56
2023/07/09 07:34:40;;;;;;;3.40;1.80;;;;;;;41.19;20.05;100962.92;102401;280;105448;-54
2023/07/09 07:37:17;;;;;;;2.50;1.50;;;;;;;41.20;19.81;100961.23;102341;280;115518;-54
2023/07/09 07:39:53;;;;;;;2.90;1.60;;;;;;;40.67;19.68;100957.11;102420;280;95015;-57
2023/07/09 07:42:32;;;;;;;2.70;1.80;;;;;;;40.95;19.91;100949.68;102263;281;97157;-56
2023/07/09 07:45:08;;;;;;;2.90;1.70;;;;;;;41.18;19.35;100951.48;102433;280;118229;-53
2023/07/09 07:47:52;;;;;;;2.40;1.70;;;;;;;40.72;19.29;100947.73;102399;281;105472;-53
2023/07/09 07:50:27;;;;;;;2.30;1.60;;;;;;;40.93;19.43;100949.55;102421;280;114281;-56
2023/07/09 07:53:09;;;;;;;1.70;1.40;;;;;;;40.60;19.29;100950.17;102470;281;94996;-56
2023/07/09 07:55:48;;;;;;;1.50;1.30;;;;;;;40.14;19.26;100950.38;102428;280;97047;-56
2023/07/09 07:58:25;;;;;;;2.00;1.40;;;;;;;40.47;19.41;100950.20;102386;280;121457;-56
2023/07/09 08:01:08;;;;;;;2.00;1.50;;;;;;;40.50;19.27;100951.39;102402;280;105809;-53
2023/07/09 08:03:47;;;;;;;2.10;1.70;;;;;;;41.03;19.09;100945.19;102374;281;115736;-54
2023/07/09 08:06:22;;;;;;;3.00;1.90;;;;;;;40.72;19.28;100946.27;102189;280;96494;-54
2023/07/09 08:09:06;;;;;;;1.80;1.30;;;;;;;40.57;19.53;100949.17;102383;280;97608;-54
2023/07/09 08:11:43;;;;;;;1.90;1.50;;;;;;;40.58;18.98;100949.34;102375;281;120910;-54
2023/07/09 08:14:20;;;;;;;3.20;1.40;;;;;;;40.75;18.73;100950.45;102393;280;104876;-54
2023/07/09 08:16:57;;;;;;;2.20;1.30;;;;;;;41.44;18.94;100946.84;102357;280;113884;-53
2023/07/09 08:19:49;;;;;;;2.30;1.70;;;;;;;41.75;18.51;100946.64;102341;280;93620;-54
2023/07/09 08:22:28;;;;;;;1.70;1.30;;;;;;;41.72;17.87;100945.61;102386;281;98175;-60
2023/07/09 08:25:09;;;;;;;2.40;1.40;;;;;;;41.08;17.65;100954.23;102398;280;121216;-58
2023/07/09 08:27:47;;;;;;;2.00;1.40;;;;;;;40.84;17.83;100947.61;102356;280;105756;-58
2023/07/09 08:30:25;;;;;;;3.10;2.00;;;;;;;40.50;17.86;100958.10;102438;280;113433;-58
2023/07/09 08:33:01;;;;;;;1.70;1.40;;;;;;;40.10;18.26;100958.30;102382;280;94925;-57
2023/07/09 08:35:36;;;;;;;2.70;1.50;;;;;;;40.11;18.31;100957.09;102427;280;97322;-58
2023/07/09 08:38:11;;;;;;;1.70;1.40;;;;;;;39.95;18.11;100955.33;102394;281;119499;-58
2023/07/09 08:40:56;;;;;;;2.60;2.10;;;;;;;40.19;17.97;100951.75;102425;280;105579;-59
2023/07/09 08:43:51;;;;;;;2.10;1.40;;;;;;;39.60;18.52;100947.70;102397;280;115213;-60
2023/07/09 08:46:41;;;;;;;1.70;1.30;;;;;;;39.56;18.55;100944.78;102352;280;94099;-60
2023/07/09 08:49:24;;;;;;;2.40;1.30;;;;;;;39.67;18.65;100941.23;102386;280;98218;-60
2023/07/09 08:52:03;;;;;;;2.10;1.40;;;;;;;39.55;18.28;100941.42;102419;280;120406;-59
2023/07/09 08:54:39;;;;;;;1.80;1.50;;;;;;;39.16;18.19;100939.89;102408;273;105264;-59
2023/07/09 08:57:24;;;;;;;2.10;1.50;;;;;;;38.85;18.64;100939.30;102399;280;114033;-60
2023/07/09 09:00:18;;;;;;;2.10;1.50;;;;;;;38.74;19.30;100941.77;102413;280;94851;-60
2023/07/09 09:02:59;;;;;;;1.70;1.40;;;;;;;37.91;19.24;100942.50;102267;281;97896;-59
2023/07/09 09:05:43;;;;;;;1.60;1.20;;;;;;;37.05;19.67;100945.02;102406;280;120951;-60
2023/07/09 09:08:34;;;;;;;1.60;1.30;;;;;;;36.38;19.56;100944.18;102371;280;105501;-60
2023/07/09 09:11:20;;;;;;;1.90;1.30;;;;;;;35.54;19.84;100950.84;102383;280;112531;-57
2023/07/09 09:14:04;;;;;;;1.80;1.30;;;;;;;34.89;20.50;100946.89;102482;281;94902;-58
2023/07/09 09:16:49;;;;;;;3.20;1.20;;;;;;;34.46;20.90;100939.45;102377;281;98204;-59
2023/07/09 09:19:36;;;;;;;2.40;1.30;;;;;;;34.00;21.50;100937.17;102376;280;120477;-58
2023/07/09 09:22:21;;;;;;;1.70;1.40;;;;;;;33.66;21.65;100941.39;102367;280;105036;-57
2023/07/09 09:25:25;;;;;;;3.50;1.40;;;;;;;33.16;22.15;100944.02;102380;281;113519;-56
2023/07/09 09:28:02;;;;;;;1.50;1.30;;;;;;;32.82;22.58;100942.02;102394;268;93593;-55
2023/07/09 09:30:42;;;;;;;2.00;1.30;;;;;;;32.43;22.94;100941.70;102433;268;98176;-54
2023/07/09 09:33:24;;;;;;;2.50;1.50;;;;;;;32.17;23.62;100941.95;102408;280;120021;-54
2023/07/09 09:36:06;;;;;;;1.80;1.10;;;;;;;32.04;23.74;100939.02;102454;281;104247;-55
2023/07/09 09:38:50;;;;;;;2.90;1.40;;;;;;;31.90;24.29;100948.45;102374;280;112550;-56
2023/07/09 09:41:31;;;;;;;2.10;1.20;;;;;;;31.56;24.32;100947.11;102351;280;95170;-56
2023/07/09 09:44:18;;;;;;;2.00;1.10;;;;;;;31.50;24.72;100938.21;102421;280;98047;-56
2023/07/09 09:47:02;;;;;;;3.10;1.10;;;;;;;31.82;25.13;100928.55;102310;281;119880;-55
2023/07/09 09:49:53;;;;;;;1.60;1.10;;;;;;;31.89;24.91;100930.69;102228;281;104689;-55
2023/07/09 09:52:34;;;;;;;2.30;1.10;;;;;;;31.53;24.52;100942.46;102179;281;114881;-55
2023/07/09 09:55:23;;;;;;;1.50;1.10;;;;;;;31.19;24.52;100940.14;102442;281;94851;-52
2023/07/09 09:58:02;;;;;;;2.60;1.30;;;;;;;31.08;24.69;100937.36;102370;280;97446;-54
2023/07/09 10:00:40;;;;;;;1.00;0.80;;;;;;;31.17;24.76;100936.15;102352;280;120636;-55
2023/07/09 10:03:33;;;;;;;2.30;1.00;;;;;;;30.91;24.88;100934.08;102388;281;104802;-55
2023/07/09 10:06:18;;;;;;;1.10;0.90;;;;;;;30.90;25.01;100944.86;102420;280;114373;-56
2023/07/09 10:09:07;;;;;;;1.60;1.10;;;;;;;30.65;24.99;100941.94;102399;280;93661;-55
2023/07/09 10:11:48;;;;;;;1.40;1.00;;;;;;;30.65;25.52;100933.56;102397;280;97169;-55
2023/07/09 10:14:40;;;;;;;1.50;1.00;;;;;;;30.53;25.13;100935.80;102356;281;120737;-53
2023/07/09 10:17:31;;;;;;;1.70;1.10;;;;;;;30.56;25.46;100934.70;102361;281;104075;-53
2023/07/09 10:20:19;;;;;;;1.90;0.90;;;;;;;30.64;25.51;100932.67;102376;281;113869;-52
2023/07/09 10:23:02;;;;;;;1.20;0.90;;;;;;;30.45;25.27;100936.97;102371;280;94996;-54
2023/07/09 10:25:46;;;;;;;;;;;;;;;30.59;25.42;100932.61;102337;280;97529;-60
2023/07/09 10:28:50;;;;;;;1.50;0.80;;;;;;;30.67;25.64;100926.36;102377;280;120712;-60
2023/07/09 10:31:39;;;;;;;1.20;0.90;;;;;;;30.85;25.34;100922.09;102338;280;105282;-61
2023/07/09 10:34:28;;;;;;;1.40;1.00;;;;;;;30.92;25.29;100924.95;102370;281;113255;-60
2023/07/09 10:37:30;;;;;;;1.70;1.10;;;;;;;30.80;25.39;100926.88;102365;280;94154;-59
2023/07/09 10:40:10;;;;;;;1.10;0.90;;;;;;;30.47;25.02;100921.08;102420;281;98220;-60
2023/07/09 10:42:52;;;;;;;1.10;0.80;;;;;;;30.29;24.89;100920.67;102383;280;119320;-61
2023/07/09 10:45:33;;;;;;;2.00;1.00;;;;;;;30.12;25.15;100916.70;102224;281;107292;-62
2023/07/09 10:48:16;;;;;;;1.70;1.00;;;;;;;30.02;25.59;100916.48;102358;280;114481;-63
2023/07/09 10:50:56;;;;;;;1.30;1.00;;;;;;;30.05;25.68;100917.94;102358;280;94337;-59
2023/07/09 10:53:46;;;;;;;2.10;1.00;;;;;;;30.06;25.58;100911.64;102397;280;97534;-60
2023/07/09 10:56:28;;;;;;;1.80;1.00;;;;;;;30.02;25.74;100908.19;102359;280;120648;-59
2023/07/09 10:59:16;;;;;;;1.40;1.00;;;;;;;29.99;25.93;100907.48;102462;280;104228;-61
2023/07/09 11:01:59;;;;;;;2.30;0.90;;;;;;;29.95;25.78;100900.61;102391;281;113547;-61
2023/07/09 11:04:46;;;;;;;2.20;0.90;;;;;;;29.76;25.76;100907.69;102399;280;94243;-60
2023/07/09 11:07:29;;;;;;;1.30;0.90;;;;;;;29.61;25.79;100909.41;102363;281;97701;-60
2023/07/09 11:10:08;;;;;;;0.90;0.70;;;;;;;29.72;26.06;100912.31;102403;280;121459;-60
2023/07/09 11:12:48;;;;;;;1.90;1.00;;;;;;;29.79;26.03;100911.42;102372;280;104099;-60
2023/07/09 11:15:34;;;;;;;1.10;0.80;;;;;;;29.95;26.18;100915.60;102360;280;113787;-60
2023/07/09 11:18:19;;;;;;;2.50;1.00;;;;;;;29.85;26.49;100915.52;102337;280;93227;-59
2023/07/09 11:21:06;;;;;;;1.30;0.90;;;;;;;30.23;26.90;100905.57;102389;280;97291;-59
2023/07/09 11:23:54;;;;;;;1.30;0.90;;;;;;;30.35;26.33;100907.81;102200;281;119811;-60
2023/07/09 11:26:32;;;;;;;2.00;1.00;;;;;;;30.18;25.79;100906.95;102352;280;105760;-59
2023/07/09 11:29:28;;;;;;;2.40;1.10;;;;;;;29.87;25.64;100911.34;102363;280;114273;-59
2023/07/09 11:32:12;;;;;;;1.40;0.90;;;;;;;29.45;25.46;100909.23;102206;281;94587;-59
2023/07/09 11:34:52;;;;;;;1.30;0.90;;;;;;;29.36;25.88;100914.95;102370;280;97345;-61
2023/07/09 11:37:29;;;;;;;1.00;0.80;;;;;;;29.47;25.86;100913.94;102152;281;119219;-60
2023/07/09 11:40:15;;;;;;;0.80;0.80;;;;;;;29.57;25.77;100905.19;102441;280;105356;-61
2023/07/09 11:42:59;;;;;;;1.50;0.90;;;;;;;29.71;25.81;100898.66;102401;280;114052;-59
2023/07/09 11:45:38;;;;;;;1.60;0.90;;;;;;;29.81;25.85;100900.76;102413;280;94315;-60
2023/07/09 11:48:26;;;;;;;1.40;1.00;;;;;;;29.93;26.01;100903.02;102395;281;95129;-60
2023/07/09 11:51:11;;;;;;;1.30;0.80;;;;;;;30.02;26.06;100895.94;102438;281;118523;-63
2023/07/09 11:53:56;;;;;;;1.70;1.10;;;;;;;30.16;26.13;100901.54;102380;280;105270;-59
2023/07/09 11:56:37;;;;;;;1.00;0.90;;;;;;;30.09;25.84;100908.00;102193;280;113889;-58
2023/07/09 11:59:14;;;;;;;1.20;0.90;;;;;;;29.93;25.37;100905.13;102398;280;94618;-58
2023/07/09 12:01:54;;;;;;;1.20;0.90;;;;;;;29.69;25.31;100900.27;102411;280;97423;-58
2023/07/09 12:04:38;;;;;;;1.90;1.10;;;;;;;29.63;25.55;100894.91;102373;280;119239;-58
2023/07/09 12:07:19;;;;;;;1.90;0.90;;;;;;;29.64;25.26;100888.54;102405;280;103138;-57
2023/07/09 12:10:15;;;;;;;1.00;0.80;;;;;;;29.56;25.21;100891.41;102404;280;114059;-57
2023/07/09 12:12:59;;;;;;;1.50;1.10;;;;;;;29.34;25.30;100893.52;102419;280;93773;-56
2023/07/09 12:15:36;;;;;;;1.50;1.00;;;;;;;29.26;25.38;100888.10;102346;281;96634;-54
2023/07/09 12:18:26;;;;;;;3.10;1.10;;;;;;;29.20;25.45;100879.20;102369;280;119104;-53
2023/07/09 12:21:04;;;;;;;1.80;1.10;;;;;;;29.28;25.53;100872.93;102420;272;104057;-55
2023/07/09 12:23:42;;;;;;;2.00;1.30;;;;;;;29.30;25.84;100871.34;102386;280;113846;-60